Flight Track Log - Related Links

Times and Time Zones

All times are in EDT time to prevent confusion due to time zone crossing. See the JBU1770 flight status page for this flight to view local times or setup timezone preferences in your user account.

Time Position Orientation Groundspeed Altitude Reporting Facility
EDT Latitude Longitude Course Direction KTS MPH feet Rate Location/Type
Sat 09:17:44 PM 32.9853 -80.0100 40° Northeast 214 246 4,500  Level Jacksonville Center
Sat 09:18:00 PM 33.2918 -79.9183 North  Level FlightAware Approximate
Sat 09:18:44 PM 33.0517 -79.9906 14° North 229 264 6,600  Level Jacksonville Center
Sat 09:19:00 PM 33.4258 -79.8715 North  Level FlightAware Approximate
Sat 09:19:44 PM 33.1283 -79.9681 14° North 257 296 9,600  Level Jacksonville Center
Sat 09:20:00 PM 33.5630 -79.8344 13° North  Level FlightAware Approximate
Sat 09:20:44 PM 33.2133 -79.9431 14° North 285 328 11,700  Level Jacksonville Center
Sat 09:21:00 PM 33.7000 -79.7972 North  Level FlightAware Approximate
Sat 09:21:44 PM 33.3064 -79.9053 19° North 321 369 14,100  Level Jacksonville Center
Sat 09:22:00 PM 33.8355 -79.7573 23° Northeast  Level FlightAware Approximate
Sat 09:22:44 PM 33.3925 -79.8350 34° Northeast 351 404 16,600  Level Jacksonville Center
Sat 09:23:00 PM 33.9461 -79.6539 40° Northeast  Level FlightAware Approximate
Sat 09:23:44 PM 33.4844 -79.7622 33° Northeast 371 427 18,600  Level Jacksonville Center
Sat 09:24:44 PM 33.5786 -79.6867 34° Northeast 390 449 20,600 1,750 Climbing Jacksonville Center
Sat 09:25:44 PM 33.6769 -79.6083 34° Northeast 401 461 22,100 1,300 Climbing Jacksonville Center
Sat 09:26:44 PM 33.7831 -79.5217 34° Northeast 424 488 23,200 1,250 Climbing Jacksonville Center
Sat 09:27:44 PM 33.8956 -79.4350 33° Northeast 453 521 24,600 1,348 Climbing Jacksonville Center
Sat 09:29:51 PM 34.1222 -79.2492 34° Northeast 485 558 27,400 1,283 Climbing Washington Center
Sat 09:30:51 PM 34.2419 -79.1517 34° Northeast 506 582 28,600 800 Climbing Washington Center
Sat 09:31:51 PM 34.3767 -79.0417 34° Northeast 512 589 29,000 200 Climbing Washington Center
Sat 09:32:51 PM 34.4983 -78.9461 33° Northeast 519 597 29,000  Level Washington Center
Sat 09:33:51 PM 34.6222 -78.8375 36° Northeast 528 608 29,000  Level Washington Center
Sat 09:34:51 PM 34.7461 -78.7339 34° Northeast 533 613 29,000  Level Washington Center
Sat 09:35:51 PM 34.8675 -78.6322 34° Northeast 538 619 29,000  Level Washington Center
Sat 09:36:51 PM 34.9914 -78.5253 35° Northeast 538 619 29,000  Level Washington Center
Sat 09:37:51 PM 35.1128 -78.4206 35° Northeast 533 613 29,000  Level Washington Center
Sat 09:38:51 PM 35.2383 -78.3131 35° Northeast 533 613 29,000  Level Washington Center
Sat 09:39:51 PM 35.3661 -78.2028 35° Northeast 540 621 29,000  Level Washington Center
Sat 09:40:51 PM 35.4808 -78.1044 35° Northeast 551 634 29,000  Level Washington Center
Sat 09:41:51 PM 35.6103 -77.9936 35° Northeast 556 640 29,000  Level Washington Center
Sat 09:42:51 PM 35.7378 -77.8822 35° Northeast 556 640 29,000  Level Washington Center
Sat 09:43:51 PM 35.8650 -77.7731 35° Northeast 556 640 29,000  Level Washington Center
Sat 09:44:51 PM 35.9942 -77.6586 36° Northeast 556 640 29,000  Level Washington Center
Sat 09:45:51 PM 36.1192 -77.5489 35° Northeast 556 640 29,000  Level Washington Center
Sat 09:46:51 PM 36.2547 -77.4233 37° Northeast 551 634 29,000  Level Washington Center
Sat 09:47:51 PM 36.3794 -77.3153 35° Northeast 551 634 29,000  Level Washington Center
Sat 09:48:51 PM 36.5042 -77.2069 35° Northeast 551 634 29,000  Level Washington Center
Sat 09:49:51 PM 36.6264 -77.0956 36° Northeast 551 634 29,000  Level Washington Center
Sat 09:50:51 PM 36.7508 -76.9839 36° Northeast 551 634 29,000  Level Washington Center
Sat 09:51:51 PM 36.8753 -76.8694 36° Northeast 551 634 29,000  Level Washington Center
Sat 09:52:51 PM 36.9994 -76.7569 36° Northeast 551 634 29,000  Level Washington Center
Sat 09:53:51 PM 37.1111 -76.6544 36° Northeast 551 634 29,000  Level Washington Center
Sat 09:54:51 PM 37.2350 -76.5389 37° Northeast 551 634 29,000  Level Washington Center
Sat 09:55:51 PM 37.3611 -76.4253 36° Northeast 551 634 29,000  Level Washington Center
Sat 09:56:51 PM 37.4850 -76.3117 36° Northeast 551 634 29,000  Level Washington Center
Sat 09:57:51 PM 37.6106 -76.1975 36° Northeast 551 634 29,000  Level Washington Center
Sat 09:58:51 PM 37.7572 -76.0883 30° Northeast 557 641 29,000  Level Washington Center
Sat 09:59:51 PM 37.8681 -75.9942 34° Northeast 545 627 29,000  Level Washington Center
Sat 10:00:51 PM 38.0100 -75.8842 31° Northeast 540 621 29,000  Level Washington Center
Sat 10:01:51 PM 38.1375 -75.7869 31° Northeast 540 621 29,000  Level Washington Center
Sat 10:02:51 PM 38.2711 -75.6842 31° Northeast 540 621 29,000 -50 Level Washington Center
Sat 10:03:51 PM 38.3878 -75.5997 30° Northeast 540 621 28,900 -50 Descending Washington Center
Sat 10:04:51 PM 38.5192 -75.4908 33° Northeast 540 621 28,900 50 Level Washington Center
Sat 10:05:51 PM 38.6525 -75.3869 31° Northeast 552 635 29,000 50 Climbing Washington Center
Sat 10:06:51 PM 38.7836 -75.2828 32° Northeast 552 635 29,000 -50 Level Washington Center
Sat 10:07:51 PM 38.9189 -75.1781 31° Northeast 558 642 28,900  Descending Washington Center
Sat 10:08:51 PM 39.0497 -75.0706 33° Northeast 558 642 29,000 50 Climbing Washington Center
Sat 10:09:51 PM 39.1847 -74.9650 31° Northeast 558 642 29,000  Level Washington Center
Sat 10:11:23 PM 39.3967 -74.7953 32° Northeast 560 644 29,000  Level New York Center
Sat 10:12:22 PM 39.5317 -74.6844 32° Northeast 560 644 29,000  Level New York Center
Sat 10:13:22 PM 39.6581 -74.5811 32° Northeast 585 673 29,000  Level New York Center
Sat 10:14:22 PM 39.8014 -74.4644 32° Northeast 590 679 29,000  Level New York Center
Sat 10:15:22 PM 39.9406 -74.3472 33° Northeast 595 685 29,000  Level New York Center
Sat 10:16:24 PM 40.0836 -74.2300 32° Northeast 600 690 29,000  Level New York Center
Sat 10:17:22 PM 40.2225 -74.1144 32° Northeast 600 690 29,000  Level New York Center
Sat 10:18:22 PM 40.3614 -73.9933 34° Northeast 605 696 29,000 -212 Level New York Center
Sat 10:20:12 PM 40.6114 -73.7194 40° Northeast 617 710 28,400 -776 Descending Boston Center
Sat 10:21:12 PM 40.7231 -73.5931 41° Northeast 607 699 26,800 -2,200 Descending Boston Center
Sat 10:22:12 PM 40.8328 -73.4661 41° Northeast 565 650 24,000 -1,450 Descending Boston Center
Sat 10:23:12 PM 40.9275 -73.3328 47° Northeast 516 594 23,900 -500 Descending Boston Center
Sat 10:24:12 PM 41.0286 -73.1939 46° Northeast 487 560 23,000 -450 Descending Boston Center
Sat 10:25:12 PM 41.1192 -73.0544 49° Northeast 487 560 23,000  Level Boston Center
Sat 10:26:12 PM 41.1947 -72.9036 56° Northeast 487 560 23,000  Level Boston Center
Sat 10:27:12 PM 41.2539 -72.7383 64° Northeast 487 560 23,000  Level Boston Center
Sat 10:28:12 PM 41.3103 -72.5867 64° Northeast 500 575 23,000  Level Boston Center
Sat 10:29:12 PM 41.3731 -72.4181 64° Northeast 500 575 23,000 -550 Level Boston Center
Sat 10:30:12 PM 41.4353 -72.2381 65° Northeast 500 575 21,900 -1,050 Descending Boston Center
Sat 10:31:12 PM 41.4953 -72.0742 64° Northeast 495 570 20,900 -1,300 Descending Boston Center
Sat 10:32:12 PM 41.5531 -71.9158 64° Northeast 484 557 19,300 -1,500 Descending Boston Center
Sat 10:33:12 PM 41.6083 -71.7572 65° Northeast 472 543 17,900 -1,400 Descending Boston Center
Sat 10:34:12 PM 41.6556 -71.6233 65° Northeast 459 528 16,500 -1,450 Descending Boston Center
Sat 10:35:12 PM 41.7125 -71.4611 65° Northeast 442 509 15,000 -1,550 Descending Boston Center
Sat 10:36:12 PM 41.7697 -71.3239 61° Northeast 429 494 13,400 -1,550 Descending Boston Center
Sat 10:37:12 PM 41.8267 -71.1892 60° Northeast 416 479 11,900 -1,200 Descending Boston Center
Sat 10:38:12 PM 41.8772 -71.0683 61° Northeast 382 440 11,000 -581 Descending Boston Center
Sat 10:38:45 PM 41.9167 -71.0000 52° Northeast 372 428 11,000  Level KA90
Sat 10:39:45 PM 41.9667 -70.8833 60° Northeast 371 427 11,000  Level KA90
Sat 10:40:12 PM 41.9806 -70.8286 71° East 372 428 11,000 -552 Level Boston Center
Sat 10:41:12 PM 42.0333 -70.7350 53° Northeast 367 422 10,200 -1,250 Descending Boston Center
Sat 10:42:12 PM 42.0944 -70.6411 49° Northeast 338 389 8,500 -1,724 Descending Boston Center
Sat 10:42:39 PM 42.1333 -70.6167 25° Northeast 297 342 7,700 -1,379 Descending KA90
Sat 10:43:39 PM 42.2000 -70.6167 360° North 279 321 6,500 -1,097 Descending KA90
Sat 10:44:12 PM 42.2403 -70.6369 340° North 254 292 6,000 -1,097 Descending Boston Center
Sat 10:45:12 PM 42.3075 -70.6714 339° North 254 292 4,800 -1,200 Descending Boston Center
Sat 10:46:12 PM 42.3664 -70.7064 336° Northwest 254 292 3,600 -900 Descending Boston Center
Sat 10:47:12 PM 42.3861 -70.7817 290° West 210 242 3,000 -900 Descending Boston Center
Sat 10:48:12 PM 42.3892 -70.8406 274° West 180 207 1,800 -968 Descending Boston Center
Sat 10:48:45 PM 42.3833 -70.8833 260° West 169 194 1,500 -690 Descending KA90
Sat 10:49:39 PM 42.3667 -70.9333 246° West 143 165 800 -778 Descending KA90
Sat 10:51:00 PM 42.3500 -71.0000 North  Level FlightAware Approximate

Login

Don't have an account? Register now (free) for customized features, flight alerts, and more!